Time;durP1;ratioP1;P1;durP2;ratioP2;P2;SDS_P1;SDS_P2;PMS_P1;PMS_P2;Temp;Humidity;BMP_temperature;BMP_pressure;BME280_temperature;BME280_humidity;BME280_pressure;Samples;Min_cycle;Max_cycle;Signal;HPM_P1;HPM_P2
2022/01/29 00:02:26;;;;;;;8.57;2.37;;;;;;;0.94;70.27;98976.75;6261461;28;20280;-70
2022/01/29 00:05:28;;;;;;;6.17;2.40;;;;;;;0.92;70.81;98975.91;6274977;28;20697;-70
2022/01/29 00:08:30;;;;;;;7.53;2.47;;;;;;;0.90;70.78;98982.91;6277192;28;20230;-71
2022/01/29 00:11:35;;;;;;;7.20;2.43;;;;;;;0.93;69.84;98975.03;6280206;28;20226;-70
2022/01/29 00:14:37;;;;;;;8.90;2.30;;;;;;;0.95;69.52;98976.72;6279845;28;20235;-71
2022/01/29 00:17:39;;;;;;;10.87;2.20;;;;;;;0.93;69.71;98975.03;6283532;28;20343;-70
2022/01/29 00:20:41;;;;;;;8.47;2.57;;;;;;;0.93;69.32;98951.63;6283037;28;20637;-70
2022/01/29 00:23:43;;;;;;;8.67;2.60;;;;;;;0.89;69.16;98956.06;6266233;28;20385;-70
2022/01/29 00:26:45;;;;;;;6.97;2.17;;;;;;;0.93;68.74;98947.31;6278126;28;20720;-70
2022/01/29 00:29:47;;;;;;;7.30;2.20;;;;;;;0.89;69.33;98942.22;6262180;28;20221;-72
2022/01/29 00:32:49;;;;;;;9.97;2.43;;;;;;;0.88;68.88;98930.97;6279661;28;20272;-70
2022/01/29 00:35:51;;;;;;;8.10;2.50;;;;;;;0.85;68.79;98931.03;6277758;28;20233;-70
2022/01/29 00:38:53;;;;;;;15.37;2.80;;;;;;;0.88;68.39;98917.97;6278985;28;20225;-70
2022/01/29 00:41:55;;;;;;;9.07;1.87;;;;;;;0.87;68.63;98941.38;6278867;28;20599;-70
2022/01/29 00:45:16;;;;;;;6.93;2.10;;;;;;;0.91;68.21;98923.09;6264312;28;20607;-71
2022/01/29 00:48:19;;;;;;;7.90;2.33;;;;;;;0.87;68.76;98938.78;6277379;28;20684;-71
2022/01/29 00:51:21;;;;;;;9.47;2.50;;;;;;;0.85;68.55;98932.75;6278366;28;20260;-71
2022/01/29 00:54:23;;;;;;;10.30;2.83;;;;;;;0.89;67.76;98922.28;6252285;28;20250;-71
2022/01/29 00:57:28;;;;;;;10.83;2.53;;;;;;;0.81;68.84;98923.31;6275554;28;20703;-70
2022/01/29 01:00:30;;;;;;;10.87;2.50;;;;;;;0.72;69.62;98935.63;6269572;28;20222;-71
2022/01/29 01:03:32;;;;;;;8.47;3.00;;;;;;;0.66;69.62;98930.56;6277784;28;20327;-71
2022/01/29 01:06:34;;;;;;;9.17;2.80;;;;;;;0.62;69.77;98928.91;6259264;28;20273;-71
2022/01/29 01:09:37;;;;;;;8.37;2.50;;;;;;;0.61;70.30;98928.94;6278375;28;20231;-71
2022/01/29 01:12:39;;;;;;;10.50;2.87;;;;;;;0.55;71.07;98923.88;6276845;28;20702;-70
2022/01/29 01:15:41;;;;;;;10.50;3.00;;;;;;;0.57;71.07;98935.09;6277745;28;20241;-70
2022/01/29 01:18:43;;;;;;;8.93;2.97;;;;;;;0.51;71.72;98930.84;6276037;28;20776;-70
2022/01/29 01:21:45;;;;;;;7.53;2.93;;;;;;;0.45;72.00;98931.00;6276966;28;20741;-70
2022/01/29 01:24:47;;;;;;;7.13;3.13;;;;;;;0.48;72.28;98919.69;6276085;28;20234;-71
2022/01/29 01:27:49;;;;;;;8.50;3.13;;;;;;;0.43;72.26;98922.38;6277450;28;20368;-71
2022/01/29 01:30:51;;;;;;;7.17;3.10;;;;;;;0.42;72.40;98930.19;6270278;28;20234;-70
2022/01/29 01:33:53;;;;;;;10.60;2.77;;;;;;;0.44;71.60;98925.81;6258742;28;20318;-70
2022/01/29 01:37:00;;;;;;;7.60;3.07;;;;;;;0.47;71.94;98917.97;6266196;28;20281;-70
2022/01/29 01:40:03;;;;;;;10.17;3.10;;;;;;;0.41;72.49;98910.28;6277538;28;20614;-71
2022/01/29 01:43:05;;;;;;;11.00;2.93;;;;;;;0.40;72.69;98919.81;6274910;28;20233;-71
2022/01/29 01:46:07;;;;;;;8.13;3.00;;;;;;;0.36;72.52;98916.44;6258326;28;20625;-71
2022/01/29 01:49:10;;;;;;;9.23;2.53;;;;;;;0.34;72.40;98900.03;6276288;28;20218;-70
2022/01/29 01:52:13;;;;;;;9.87;2.70;;;;;;;0.26;72.93;98909.72;6276448;28;20234;-70
2022/01/29 01:55:16;;;;;;;8.40;2.40;;;;;;;0.25;72.80;98888.97;6250260;28;20317;-71
2022/01/29 01:58:18;;;;;;;15.17;3.10;;;;;;;0.22;72.66;98887.28;6274501;28;20234;-70
2022/01/29 02:01:20;;;;;;;10.67;2.60;;;;;;;0.30;71.88;98880.22;6276972;28;20602;-72
2022/01/29 02:04:22;;;;;;;7.93;2.53;;;;;;;0.28;71.61;98876.81;6275766;28;20249;-71
2022/01/29 02:07:24;;;;;;;9.23;2.20;;;;;;;0.31;71.60;98879.31;6276100;28;20238;-71
2022/01/29 02:10:28;;;;;;;10.80;2.80;;;;;;;0.36;71.54;98876.66;6276141;28;20729;-71
2022/01/29 02:13:30;;;;;;;12.83;2.80;;;;;;;0.31;71.52;98876.72;6276144;28;20749;-71
2022/01/29 02:16:33;;;;;;;8.57;2.53;;;;;;;0.25;71.54;98874.25;6275895;28;20701;-70
2022/01/29 02:19:35;;;;;;;7.87;2.63;;;;;;;0.17;72.25;98868.38;6258137;28;20728;-70
2022/01/29 02:22:39;;;;;;;4.87;1.77;;;;;;;0.06;72.19;98872.91;6275590;28;20235;-71
2022/01/29 02:25:46;;;;;;;6.97;2.30;;;;;;;-0.23;73.34;98872.59;6258772;28;20227;-71
2022/01/29 02:28:48;;;;;;;4.37;2.13;;;;;;;-0.41;73.60;98868.59;6275503;28;20400;-70
2022/01/29 02:31:56;;;;;;;6.17;2.47;;;;;;;-0.53;74.26;98861.03;6277917;28;20237;-70
2022/01/29 02:34:58;;;;;;;8.23;1.90;;;;;;;-0.70;74.56;98861.31;6275366;28;20606;-71
2022/01/29 02:38:00;;;;;;;9.37;2.40;;;;;;;-0.75;75.05;98853.63;6274374;28;20291;-71
2022/01/29 02:41:05;;;;;;;6.67;1.97;;;;;;;-0.85;75.28;98858.97;6275690;28;20235;-70
2022/01/29 02:44:08;;;;;;;7.90;2.40;;;;;;;-0.95;75.64;98852.22;6275330;28;20226;-71
2022/01/29 02:47:27;;;;;;;4.93;2.97;;;;;;;-0.95;76.50;98857.41;6275230;28;20315;-71
2022/01/29 02:50:29;;;;;;;8.70;3.30;;;;;;;-0.90;76.66;98850.44;6257428;28;20237;-71
2022/01/29 02:53:31;;;;;;;13.37;3.00;;;;;;;-0.78;76.73;98847.59;6275636;28;20231;-71
2022/01/29 02:56:33;;;;;;;13.43;3.50;;;;;;;-0.73;76.68;98847.56;6276148;28;20295;-72
2022/01/29 02:59:35;;;;;;;9.70;2.90;;;;;;;-0.77;76.44;98850.19;6257275;28;20230;-71
2022/01/29 03:02:37;;;;;;;12.87;3.40;;;;;;;-0.79;76.67;98851.09;6273907;28;21004;-71
2022/01/29 03:05:39;;;;;;;10.93;3.47;;;;;;;-0.77;76.87;98854.50;6275964;28;20653;-71
2022/01/29 03:08:41;;;;;;;13.53;3.67;;;;;;;-0.75;77.01;98851.03;6274964;28;20230;-71
2022/01/29 03:11:43;;;;;;;8.90;2.83;;;;;;;-0.73;77.03;98850.16;6274603;28;20237;-71
2022/01/29 03:14:45;;;;;;;8.13;3.07;;;;;;;-0.70;77.25;98850.97;6275571;28;20245;-71
2022/01/29 03:17:48;;;;;;;7.67;3.53;;;;;;;-0.65;77.37;98845.69;6275128;28;20229;-71
2022/01/29 03:20:50;;;;;;;8.63;3.40;;;;;;;-0.58;76.90;98850.72;6273819;28;20291;-71
2022/01/29 03:23:52;;;;;;;8.67;3.10;;;;;;;-0.63;76.99;98852.56;6275049;28;20296;-71
2022/01/29 03:26:54;;;;;;;11.90;3.67;;;;;;;-0.56;77.17;98842.94;6275007;28;20233;-71
2022/01/29 03:29:55;;;;;;;7.17;3.63;;;;;;;-0.45;76.48;98839.28;6274561;28;20230;-71
2022/01/29 03:32:58;;;;;;;12.80;3.70;;;;;;;-0.38;76.10;98834.81;6273551;28;20230;-70
2022/01/29 03:35:59;;;;;;;7.73;3.67;;;;;;;-0.41;76.17;98840.94;6275140;28;20245;-71
2022/01/29 03:39:02;;;;;;;10.87;3.23;;;;;;;-0.40;76.06;98839.22;6275476;28;20229;-71
2022/01/29 03:42:08;;;;;;;8.70;4.00;;;;;;;-0.37;75.91;98828.75;6258420;28;20213;-71
2022/01/29 03:45:13;;;;;;;10.00;3.33;;;;;;;-0.40;76.00;98841.78;6261658;28;20289;-71
2022/01/29 03:48:16;;;;;;;6.77;3.30;;;;;;;-0.51;76.40;98836.81;6279858;28;20697;-71
2022/01/29 03:51:18;;;;;;;9.23;3.80;;;;;;;-0.45;76.19;98853.97;6278731;28;20824;-70
2022/01/29 03:54:20;;;;;;;11.90;4.47;;;;;;;-0.35;76.46;98852.06;6279346;28;20237;-71
2022/01/29 03:57:22;;;;;;;10.20;3.83;;;;;;;-0.39;76.28;98852.13;6279534;28;20708;-70
2022/01/29 04:00:23;;;;;;;7.37;3.80;;;;;;;-0.48;76.67;98854.88;6260682;28;20272;-71
2022/01/29 04:03:25;;;;;;;8.67;4.03;;;;;;;-0.49;76.82;98847.13;6278919;28;20226;-71
2022/01/29 04:06:27;;;;;;;10.67;4.80;;;;;;;-0.43;77.22;98837.50;6278618;28;20229;-71
2022/01/29 04:09:29;;;;;;;12.77;4.80;;;;;;;-0.41;77.24;98838.34;6278909;28;20229;-71
2022/01/29 04:12:37;;;;;;;12.67;4.30;;;;;;;-0.40;77.45;98829.66;6280004;28;20304;-71
2022/01/29 04:15:40;;;;;;;8.17;4.17;;;;;;;-0.41;77.75;98832.31;6279046;28;20701;-71
2022/01/29 04:18:42;;;;;;;11.67;4.97;;;;;;;-0.46;77.74;98828.94;6279238;28;20253;-71
2022/01/29 04:21:44;;;;;;;13.73;4.50;;;;;;;-0.52;78.34;98829.03;6261550;28;20245;-71
2022/01/29 04:24:46;;;;;;;10.70;4.57;;;;;;;-0.54;78.28;98810.06;6261362;28;20722;-71
2022/01/29 04:27:48;;;;;;;16.87;6.13;;;;;;;-0.47;78.93;98833.25;6278246;28;20233;-71
2022/01/29 04:30:56;;;;;;;13.23;6.00;;;;;;;-0.37;78.95;98824.44;6278522;28;20706;-71
2022/01/29 04:33:58;;;;;;;14.57;5.40;;;;;;;-0.25;78.64;98812.13;6261551;28;20292;-70
2022/01/29 04:37:00;;;;;;;10.23;5.60;;;;;;;-0.22;78.48;98825.91;6278678;28;20226;-71
2022/01/29 04:40:03;;;;;;;18.20;7.77;;;;;;;-0.16;78.14;98807.59;6260629;28;20694;-71
2022/01/29 04:43:05;;;;;;;11.80;5.53;;;;;;;-0.13;78.12;98811.88;6244050;28;20713;-72
2022/01/29 04:46:07;;;;;;;12.13;5.03;;;;;;;-0.10;78.08;98809.25;6278369;28;20725;-71
2022/01/29 04:49:10;;;;;;;12.43;5.27;;;;;;;-0.13;77.63;98804.09;6275958;28;20736;-71
2022/01/29 04:52:12;;;;;;;12.67;5.00;;;;;;;-0.10;77.77;98804.88;6263180;28;20318;-71
2022/01/29 04:55:14;;;;;;;9.83;4.70;;;;;;;-0.17;77.65;98813.69;6277912;28;20720;-71
2022/01/29 04:58:16;;;;;;;12.37;5.40;;;;;;;-0.23;78.35;98794.78;6264997;28;20279;-71
2022/01/29 05:01:18;;;;;;;10.73;4.87;;;;;;;-0.22;78.11;98799.09;6278127;28;20796;-70
2022/01/29 05:04:20;;;;;;;13.70;5.23;;;;;;;-0.33;78.05;98777.69;6277710;28;20276;-71
2022/01/29 05:07:22;;;;;;;11.90;4.83;;;;;;;-0.34;78.17;98797.59;6260108;28;20234;-71
2022/01/29 05:10:24;;;;;;;12.57;5.07;;;;;;;-0.33;77.93;98788.94;6260771;28;20811;-71
2022/01/29 05:13:28;;;;;;;12.57;5.70;;;;;;;-0.23;77.76;98797.38;6276153;28;20323;-71
2022/01/29 05:16:44;;;;;;;7.77;3.93;;;;;;;-0.09;77.01;98792.75;6259450;28;20233;-71
2022/01/29 05:29:48;;;;;;;11.17;5.07;;;;;;;-0.08;77.01;98794.47;6276425;28;20219;-71
2022/01/29 05:32:50;;;;;;;11.33;5.60;;;;;;;-0.05;77.03;98795.28;6277630;28;20218;-71
2022/01/29 05:35:52;;;;;;;11.13;4.97;;;;;;;0.16;76.49;98790.53;6278102;28;20292;-71
2022/01/29 05:38:54;;;;;;;12.33;5.50;;;;;;;0.08;76.77;98795.03;6277293;28;20234;-71
2022/01/29 05:41:57;;;;;;;9.53;5.00;;;;;;;0.09;77.13;98795.00;6259555;28;20336;-71
2022/01/29 05:44:59;;;;;;;16.37;6.03;;;;;;;0.17;76.28;98795.69;6259697;28;20230;-71
2022/01/29 05:48:01;;;;;;;9.27;4.70;;;;;;;-0.02;76.80;98797.81;6276633;28;20249;-70
2022/01/29 05:51:03;;;;;;;11.60;4.67;;;;;;;-0.21;77.05;98793.88;6259491;28;20222;-72
2022/01/29 05:54:05;;;;;;;18.37;6.20;;;;;;;-0.30;78.01;98788.03;6259483;28;20315;-71
2022/01/29 05:57:09;;;;;;;10.53;4.83;;;;;;;-0.37;78.01;98789.84;6276667;28;20218;-71
2022/01/29 06:00:11;;;;;;;9.10;4.80;;;;;;;-0.45;78.53;98783.97;6277348;28;20252;-71
2022/01/29 06:03:16;;;;;;;9.93;5.57;;;;;;;-0.48;78.62;98786.59;6276631;28;20230;-71
2022/01/29 06:06:18;;;;;;;11.63;5.40;;;;;;;-0.56;79.31;98786.75;6276258;28;20311;-70
2022/01/29 06:09:20;;;;;;;15.40;6.47;;;;;;;-0.35;79.67;98788.09;6276701;28;20218;-70
2022/01/29 06:12:22;;;;;;;11.33;6.37;;;;;;;-0.20;79.06;98782.59;6276184;28;20222;-71
2022/01/29 06:15:24;;;;;;;11.47;6.40;;;;;;;-0.14;78.66;98779.03;6258595;28;20234;-70
2022/01/29 06:18:27;;;;;;;10.00;5.87;;;;;;;-0.17;78.03;98774.75;6276309;28;20705;-70
2022/01/29 06:21:29;;;;;;;11.73;5.20;;;;;;;-0.15;78.78;98780.78;6275717;28;20222;-71
2022/01/29 06:24:31;;;;;;;11.40;6.43;;;;;;;-0.04;78.37;98772.78;6277586;28;20219;-70
2022/01/29 06:27:33;;;;;;;13.37;6.23;;;;;;;0.12;77.31;98768.13;6275872;28;20283;-71
2022/01/29 06:30:35;;;;;;;7.53;5.57;;;;;;;0.07;77.12;98767.38;6273897;28;20246;-71
2022/01/29 06:33:38;;;;;;;15.53;5.00;;;;;;;-0.08;77.86;98771.13;6236416;28;20706;-71
2022/01/29 06:36:40;;;;;;;7.47;5.33;;;;;;;-0.24;78.35;98772.31;6275814;28;20234;-71
2022/01/29 06:39:41;;;;;;;10.53;5.87;;;;;;;-0.43;78.57;98775.28;6275803;28;20229;-71
2022/01/29 06:42:43;;;;;;;12.70;5.67;;;;;;;-0.54;78.60;98777.22;6275195;28;20238;-71
2022/01/29 06:45:46;;;;;;;11.40;6.13;;;;;;;-0.37;79.50;98776.88;6275327;28;20230;-71
2022/01/29 06:48:48;;;;;;;7.90;5.17;;;;;;;-0.38;79.27;98772.59;6274638;28;20234;-71
2022/01/29 06:51:53;;;;;;;9.93;5.97;;;;;;;-0.35;79.21;98785.50;6257551;28;20226;-71
2022/01/29 06:54:54;;;;;;;11.77;5.53;;;;;;;-0.32;78.98;98769.91;6274152;28;20241;-71
2022/01/29 06:57:57;;;;;;;8.10;5.50;;;;;;;-0.18;78.80;98761.81;6274565;28;20238;-71
2022/01/29 07:01:19;;;;;;;12.47;6.63;;;;;;;-0.06;79.44;98756.38;6278008;28;20258;-69
2022/01/29 07:04:21;;;;;;;8.23;5.73;;;;;;;0.10;78.60;98756.94;6278670;28;20230;-71
2022/01/29 07:07:23;;;;;;;10.07;5.70;;;;;;;0.20;78.08;98768.84;6280510;28;20716;-71
2022/01/29 07:10:26;;;;;;;9.23;5.90;;;;;;;0.43;76.80;98771.75;6277342;28;20233;-70
2022/01/29 07:13:28;;;;;;;12.97;5.83;;;;;;;0.51;76.31;98759.47;6257142;28;20238;-71
2022/01/29 07:16:31;;;;;;;8.97;5.50;;;;;;;0.67;75.73;98772.97;6275035;28;20646;-71
2022/01/29 07:19:33;;;;;;;9.87;6.13;;;;;;;0.85;75.44;98763.88;6279846;28;20717;-71
2022/01/29 07:22:38;;;;;;;10.27;5.70;;;;;;;0.96;75.05;98769.66;6279281;28;20246;-71
2022/01/29 07:25:40;;;;;;;9.87;5.70;;;;;;;1.07;74.37;98768.50;6261735;28;20234;-70
2022/01/29 07:28:42;;;;;;;10.87;5.53;;;;;;;1.23;73.54;98757.72;6261186;28;20241;-72
2022/01/29 07:31:44;;;;;;;8.17;5.10;;;;;;;1.28;73.40;98750.66;6280586;28;20276;-71
2022/01/29 07:34:45;;;;;;;10.30;5.37;;;;;;;1.32;73.38;98753.13;6279082;28;20308;-70
2022/01/29 07:37:47;;;;;;;13.17;5.43;;;;;;;1.37;72.78;98746.06;6280447;28;20732;-72
2022/01/29 07:40:49;;;;;;;8.87;5.20;;;;;;;1.45;72.32;98745.88;6279254;28;20234;-71
2022/01/29 07:43:51;;;;;;;7.60;4.73;;;;;;;1.44;72.79;98751.97;6279766;28;20222;-70
2022/01/29 07:46:53;;;;;;;5.97;4.27;;;;;;;1.44;72.64;98755.41;6279951;28;20234;-71
2022/01/29 07:49:55;;;;;;;10.73;4.27;;;;;;;1.49;72.37;98752.72;6278162;28;20705;-72
2022/01/29 07:52:59;;;;;;;9.67;4.70;;;;;;;1.58;71.66;98751.59;6278081;28;20264;-71
2022/01/29 07:56:01;;;;;;;10.00;5.00;;;;;;;1.70;71.22;98753.84;6260839;28;20230;-72
2022/01/29 07:59:03;;;;;;;8.47;3.97;;;;;;;1.80;70.65;98748.34;6277633;28;20693;-72
2022/01/29 08:02:05;;;;;;;9.77;4.70;;;;;;;1.90;70.84;98748.13;6278268;28;20226;-71
2022/01/29 08:05:08;;;;;;;9.20;4.57;;;;;;;2.03;69.55;98739.88;6279120;28;20226;-72
2022/01/29 08:08:09;;;;;;;8.57;3.93;;;;;;;2.10;68.61;98728.38;6276556;28;20737;-70
2022/01/29 08:11:12;;;;;;;7.37;4.43;;;;;;;2.18;68.22;98746.41;6276663;28;20245;-72
2022/01/29 08:14:15;;;;;;;6.47;3.80;;;;;;;2.22;68.30;98732.38;6278942;28;20234;-71
2022/01/29 08:17:16;;;;;;;7.47;3.90;;;;;;;2.29;68.42;98720.03;6276393;28;20231;-72
2022/01/29 08:20:18;;;;;;;7.60;4.13;;;;;;;2.37;67.44;98718.06;6278324;28;20236;-71
2022/01/29 08:23:20;;;;;;;7.07;3.83;;;;;;;2.44;67.60;98711.75;6277398;28;20605;-71
2022/01/29 08:26:22;;;;;;;5.00;3.53;;;;;;;2.48;66.85;98722.03;6275006;28;20797;-71
2022/01/29 08:29:25;;;;;;;6.77;3.87;;;;;;;2.54;66.54;98731.41;6276763;28;20249;-71
2022/01/29 08:32:26;;;;;;;6.77;3.60;;;;;;;2.62;65.96;98711.16;6279516;28;20250;-72
2022/01/29 08:35:28;;;;;;;10.63;3.63;;;;;;;2.68;65.66;98726.63;6254002;28;20244;-71
2022/01/29 08:38:31;;;;;;;7.83;3.57;;;;;;;2.75;65.05;98729.88;6261034;28;20299;-69
2022/01/29 08:41:35;;;;;;;5.40;3.23;;;;;;;2.87;65.12;98716.44;6278543;28;20246;-72
2022/01/29 08:44:38;;;;;;;7.20;3.63;;;;;;;2.99;65.32;98721.25;6276035;28;20236;-72
2022/01/29 08:47:41;;;;;;;6.50;3.33;;;;;;;3.06;64.64;98719.28;6278465;28;20246;-71
2022/01/29 08:50:43;;;;;;;6.97;2.83;;;;;;;3.13;64.11;98713.81;6277985;28;20228;-71
2022/01/29 08:53:49;;;;;;;8.43;3.60;;;;;;;3.17;64.07;98711.97;6278979;28;20233;-72
2022/01/29 08:56:50;;;;;;;10.30;3.83;;;;;;;3.16;63.50;98699.81;6277858;28;20238;-72
2022/01/29 08:59:53;;;;;;;4.23;2.97;;;;;;;3.24;63.30;98700.41;6277576;28;20694;-71
2022/01/29 09:02:54;;;;;;;9.13;3.27;;;;;;;3.38;62.36;98705.16;6278210;28;20234;-72
2022/01/29 09:05:56;;;;;;;6.20;3.30;;;;;;;3.44;62.25;98697.94;6277697;28;20856;-72
2022/01/29 09:08:59;;;;;;;4.20;2.80;;;;;;;3.42;63.04;98712.81;6277396;28;20705;-72
2022/01/29 09:12:02;;;;;;;6.30;2.90;;;;;;;3.37;62.52;98714.75;6277620;28;20231;-71
2022/01/29 09:15:04;;;;;;;7.70;3.10;;;;;;;3.40;62.67;98711.16;6277223;28;20269;-72
2022/01/29 09:18:06;;;;;;;3.90;2.57;;;;;;;3.38;63.02;98707.75;6259572;28;20207;-71
2022/01/29 09:21:08;;;;;;;8.90;2.37;;;;;;;3.34;64.41;98702.66;6278241;28;20290;-72
2022/01/29 09:24:10;;;;;;;6.30;2.47;;;;;;;3.29;65.65;98707.16;6260146;28;20309;-71
2022/01/29 09:27:12;;;;;;;3.67;2.17;;;;;;;3.21;66.80;98696.13;6269468;28;20696;-71
2022/01/29 09:30:14;;;;;;;4.83;1.97;;;;;;;3.18;66.82;98678.00;6276696;28;20224;-72
2022/01/29 09:33:22;;;;;;;3.63;2.03;;;;;;;3.27;66.63;98679.44;6246622;28;20229;-72
2022/01/29 09:36:24;;;;;;;2.97;1.93;;;;;;;3.40;66.02;98651.13;6275864;28;20705;-72
2022/01/29 09:39:26;;;;;;;3.80;2.17;;;;;;;3.59;65.66;98647.81;6275725;28;20449;-72
2022/01/29 09:42:28;;;;;;;5.53;1.90;;;;;;;3.88;62.84;98632.84;6276192;28;20256;-72
2022/01/29 09:45:30;;;;;;;4.70;2.03;;;;;;;4.17;62.73;98614.28;6276839;28;20714;-71
2022/01/29 09:48:32;;;;;;;4.13;1.70;;;;;;;4.38;61.24;98618.63;6275468;28;20243;-71
2022/01/29 09:51:37;;;;;;;4.43;1.87;;;;;;;4.49;59.96;98612.13;6242318;28;20359;-72
2022/01/29 09:54:39;;;;;;;4.20;1.67;;;;;;;4.59;58.54;98606.44;6276028;28;20241;-72
2022/01/29 09:57:41;;;;;;;2.33;1.70;;;;;;;4.63;57.38;98613.25;6276150;28;20224;-71
2022/01/29 10:00:44;;;;;;;4.93;1.70;;;;;;;4.75;56.32;98607.50;6276343;28;20221;-71
2022/01/29 10:04:07;;;;;;;4.13;1.50;;;;;;;5.03;56.12;98601.09;6275385;28;20229;-72
2022/01/29 10:07:25;;;;;;;5.10;1.73;;;;;;;5.28;54.74;98593.03;6258445;28;20239;-71
2022/01/29 10:10:27;;;;;;;3.13;1.97;;;;;;;5.16;53.97;98574.34;6276480;28;20538;-72
2022/01/29 10:13:36;;;;;;;3.97;2.00;;;;;;;5.28;55.10;98577.34;6276342;28;20713;-72
2022/01/29 10:16:42;;;;;;;2.90;1.80;;;;;;;5.32;54.65;98553.56;6276294;28;20231;-72
2022/01/29 10:19:44;;;;;;;2.47;1.77;;;;;;;5.42;53.87;98556.59;6256890;28;20586;-72
2022/01/29 10:22:49;;;;;;;2.40;2.20;;;;;;;5.43;52.70;98559.16;6274835;28;20225;-72
2022/01/29 10:25:51;;;;;;;2.70;1.40;;;;;;;5.53;52.93;98549.97;6274569;28;20230;-72
2022/01/29 10:28:55;;;;;;;4.90;1.70;;;;;;;5.64;52.36;98556.47;6257592;28;20234;-72
2022/01/29 10:32:00;;;;;;;4.33;1.67;;;;;;;5.87;52.82;98538.78;6275164;28;20234;-72
2022/01/29 10:35:03;;;;;;;4.13;1.73;;;;;;;6.02;52.16;98552.94;6277242;28;20634;-72
2022/01/29 10:38:05;;;;;;;3.83;1.90;;;;;;;6.01;51.83;98532.03;6254999;28;20231;-71
2022/01/29 10:41:24;;;;;;;2.30;1.70;;;;;;;6.06;51.60;98541.38;6266847;28;20365;-71
2022/01/29 10:44:40;;;;;;;2.37;1.60;;;;;;;6.20;51.58;98536.31;6275194;28;20234;-72
2022/01/29 10:48:03;;;;;;;2.83;1.83;;;;;;;5.94;50.28;98513.16;6274128;28;20740;-72
2022/01/29 10:51:12;;;;;;;2.57;1.73;;;;;;;5.97;51.55;98530.50;6274545;28;20242;-72
2022/01/29 10:54:20;;;;;;;4.13;2.13;;;;;;;6.01;51.03;98527.66;6257239;28;20214;-72
2022/01/29 10:57:32;;;;;;;1.63;1.50;;;;;;;6.12;50.83;98517.50;6276099;28;20242;-72
2022/01/29 11:00:35;;;;;;;3.60;1.70;;;;;;;6.14;52.08;98534.00;6275433;28;20291;-71
2022/01/29 11:03:38;;;;;;;2.57;1.50;;;;;;;6.21;52.00;98500.47;6275158;28;20226;-72
2022/01/29 11:06:45;;;;;;;3.40;2.07;;;;;;;6.10;52.18;98513.25;6257195;28;20226;-72
2022/01/29 11:09:51;;;;;;;2.20;1.40;;;;;;;6.04;51.71;98521.41;6274852;28;20318;-72
2022/01/29 11:12:53;;;;;;;3.17;1.60;;;;;;;6.10;51.86;98542.91;6274706;28;20238;-72
2022/01/29 11:15:57;;;;;;;3.03;1.60;;;;;;;6.09;52.72;98528.13;6275145;28;20241;-72
2022/01/29 11:18:59;;;;;;;1.80;1.50;;;;;;;5.81;53.13;98523.31;6256540;28;20308;-74
2022/01/29 11:22:05;;;;;;;3.57;1.57;;;;;;;5.54;54.54;98532.50;6276143;28;20241;-72
2022/01/29 11:25:11;;;;;;;3.33;1.70;;;;;;;5.52;56.64;98534.31;6256831;28;20239;-72
2022/01/29 11:28:18;;;;;;;3.63;1.33;;;;;;;5.63;57.99;98542.53;6256421;28;20226;-72
2022/01/29 11:31:20;;;;;;;6.23;1.47;;;;;;;5.46;59.44;98529.38;6274595;28;20233;-72
2022/01/29 11:34:22;;;;;;;2.40;1.70;;;;;;;5.11;61.07;98521.34;6275404;28;20257;-72
2022/01/29 11:37:47;;;;;;;3.07;1.47;;;;;;;5.04;62.45;98516.47;6275071;28;20236;-72
2022/01/29 11:41:01;;;;;;;3.67;1.47;;;;;;;4.67;64.97;98505.03;6274597;28;20230;-72
2022/01/29 11:44:25;;;;;;;2.20;1.60;;;;;;;4.65;66.51;98499.00;6275247;28;20713;-72
2022/01/29 11:47:27;;;;;;;3.50;1.80;;;;;;;4.62;65.63;98503.50;6239888;28;20234;-72
2022/01/29 11:50:29;;;;;;;2.23;1.90;;;;;;;4.56;65.86;98493.31;6274789;28;20258;-72
2022/01/29 11:53:49;;;;;;;3.30;1.90;;;;;;;4.27;69.13;98486.72;6273009;28;20250;-71
2022/01/29 11:57:12;;;;;;;3.93;2.03;;;;;;;4.03;68.68;98488.59;6258530;28;20330;-72
2022/01/29 12:00:34;;;;;;;4.07;2.03;;;;;;;3.82;69.91;98464.19;6273503;28;20245;-71
2022/01/29 12:03:44;;;;;;;3.83;1.80;;;;;;;3.92;71.30;98469.91;6257817;28;20728;-71
2022/01/29 12:07:31;;;;;;;2.40;1.67;;;;;;;3.81;70.59;98453.81;6279654;28;20236;-71
2022/01/29 12:10:40;;;;;;;2.50;1.37;;;;;;;3.71;72.46;98441.13;6261530;28;20276;-71
2022/01/29 12:14:02;;;;;;;1.87;1.40;;;;;;;3.63;73.24;98451.03;6261118;28;20242;-71
2022/01/29 12:17:05;;;;;;;1.77;1.50;;;;;;;3.48;73.21;98430.78;6279023;28;20244;-72
2022/01/29 12:20:10;;;;;;;3.80;1.80;;;;;;;3.41;73.21;98425.84;6278568;28;20725;-71
2022/01/29 12:23:12;;;;;;;1.53;1.10;;;;;;;3.32;74.27;98414.03;6276445;28;20251;-71
2022/01/29 12:26:21;;;;;;;3.43;1.10;;;;;;;3.22;73.95;98391.81;6277644;28;20244;-72
2022/01/29 12:29:23;;;;;;;1.17;1.07;;;;;;;3.16;75.37;98397.28;6278881;28;20710;-71
2022/01/29 12:32:25;;;;;;;2.03;1.30;;;;;;;3.10;74.61;98406.19;6278639;28;20225;-71
2022/01/29 12:35:45;;;;;;;2.10;1.00;;;;;;;3.08;75.24;98384.56;6277867;28;20770;-71
2022/01/29 12:38:48;;;;;;;1.10;1.00;;;;;;;3.09;75.40;98375.00;6265572;28;20252;-71
2022/01/29 12:42:06;;;;;;;2.07;1.00;;;;;;;3.22;75.13;98364.00;6278556;28;20228;-71
2022/01/29 12:45:09;;;;;;;1.33;1.00;;;;;;;3.21;74.37;98351.84;6260142;28;20243;-71
2022/01/29 12:48:13;;;;;;;3.73;1.17;;;;;;;3.16;74.98;98350.34;6278157;28;20226;-72
2022/01/29 12:51:14;;;;;;;2.93;1.10;;;;;;;3.12;74.66;98339.19;6278313;28;20248;-72
2022/01/29 12:54:17;;;;;;;2.13;1.17;;;;;;;3.22;74.39;98324.03;6260045;28;20208;-72
2022/01/29 12:57:20;;;;;;;1.87;1.03;;;;;;;3.21;73.99;98327.53;6277989;28;20237;-72
2022/01/29 13:00:23;;;;;;;1.80;1.20;;;;;;;3.11;74.56;98345.31;6277750;28;20249;-72
2022/01/29 13:03:27;;;;;;;2.03;1.20;;;;;;;2.97;74.67;98335.44;6272296;28;20232;-72
2022/01/29 13:06:29;;;;;;;1.50;1.13;;;;;;;2.89;74.63;98319.25;6277119;28;20233;-72
2022/01/29 13:09:36;;;;;;;2.13;1.20;;;;;;;2.87;75.47;98321.06;6276606;28;20231;-73
2022/01/29 13:12:39;;;;;;;2.13;1.20;;;;;;;2.80;76.69;98313.53;6277386;28;20265;-73
2022/01/29 13:15:41;;;;;;;2.30;1.27;;;;;;;2.69;76.46;98290.53;6277738;28;20235;-73
2022/01/29 13:18:44;;;;;;;2.07;1.17;;;;;;;2.64;77.27;98289.84;6277435;28;20235;-73
2022/01/29 13:21:46;;;;;;;1.30;1.20;;;;;;;2.64;77.05;98292.44;6277772;28;20219;-73
2022/01/29 13:24:50;;;;;;;1.83;1.27;;;;;;;2.48;77.45;98293.94;6276610;28;20255;-73
2022/01/29 13:28:03;;;;;;;1.97;1.50;;;;;;;2.35;77.73;98293.56;6260352;28;20316;-72
2022/01/29 13:31:05;;;;;;;1.77;1.30;;;;;;;2.19;77.77;98285.47;6276053;28;20235;-73
2022/01/29 13:34:34;;;;;;;1.43;1.33;;;;;;;2.08;79.58;98290.22;6276766;28;20244;-72
2022/01/29 13:37:41;;;;;;;1.70;1.43;;;;;;;2.00;79.64;98276.63;6264363;28;20253;-74
2022/01/29 13:40:48;;;;;;;2.57;1.40;;;;;;;1.91;79.66;98286.50;6276633;28;20230;-72
2022/01/29 13:43:50;;;;;;;3.60;1.60;;;;;;;1.89;79.80;98286.59;6276893;28;20234;-72
2022/01/29 13:47:09;;;;;;;2.53;1.67;;;;;;;1.94;80.08;98287.25;6277006;28;20238;-72
2022/01/29 13:50:41;;;;;;;1.67;1.40;;;;;;;1.90;80.28;98251.00;6276010;28;20278;-72
2022/01/29 13:53:47;;;;;;;1.63;1.00;;;;;;;1.84;80.63;98267.69;6276521;28;20239;-72
2022/01/29 13:56:50;;;;;;;0.97;0.80;;;;;;;1.84;80.61;98257.28;6268100;28;20233;-72
2022/01/29 14:00:05;;;;;;;1.50;1.10;;;;;;;1.81;79.79;98265.19;6241763;28;20246;-73
2022/01/29 14:03:12;;;;;;;0.83;0.80;;;;;;;1.77;80.16;98241.03;6259821;28;20219;-71
2022/01/29 14:06:22;;;;;;;1.10;0.90;;;;;;;1.72;80.80;98262.91;6276629;28;20206;-72
2022/01/29 14:09:30;;;;;;;2.40;1.10;;;;;;;1.65;81.17;98244.09;6258029;28;20229;-72
2022/01/29 14:12:47;;;;;;;1.40;0.87;;;;;;;1.58;81.60;98246.97;6251225;28;20235;-73
2022/01/29 14:15:49;;;;;;;1.60;0.90;;;;;;;1.52;81.79;98244.56;6273939;28;20243;-71
2022/01/29 14:18:51;;;;;;;2.60;0.83;;;;;;;1.46;82.02;98233.47;6258277;28;20234;-72
2022/01/29 14:21:53;;;;;;;1.37;0.90;;;;;;;1.48;82.08;98230.84;6276279;28;20240;-72
2022/01/29 14:24:59;;;;;;;1.37;1.00;;;;;;;1.51;82.48;98237.66;6275541;28;20230;-72
2022/01/29 14:28:01;;;;;;;1.37;0.80;;;;;;;1.48;82.54;98229.09;6274899;28;20823;-72
2022/01/29 14:31:03;;;;;;;0.97;0.80;;;;;;;1.44;82.30;98230.06;6275681;28;20234;-73
2022/01/29 14:34:05;;;;;;;1.63;1.03;;;;;;;1.45;82.99;98213.56;6275519;28;20233;-72
2022/01/29 14:37:08;;;;;;;1.07;0.97;;;;;;;1.40;82.72;98206.81;6258443;28;20242;-72
2022/01/29 14:40:14;;;;;;;1.07;0.80;;;;;;;1.36;83.00;98208.69;6277286;28;20234;-72
2022/01/29 14:43:16;;;;;;;2.40;1.27;;;;;;;1.30;83.22;98245.28;6279445;28;20499;-73